createdAt,value
2023-05-06T00:00:49.762Z,9.98
2023-05-06T00:03:21.626Z,9.96
2023-05-06T00:05:53.189Z,10.01
2023-05-06T00:08:25.001Z,9.96
2023-05-06T00:10:56.489Z,9.94
2023-05-06T00:13:28.259Z,9.90
2023-05-06T00:15:59.732Z,9.88
2023-05-06T00:18:31.564Z,9.89
2023-05-06T00:21:03.062Z,9.88
2023-05-06T00:23:34.536Z,9.85
2023-05-06T00:26:05.995Z,9.83
2023-05-06T00:28:37.476Z,9.80
2023-05-06T00:31:09.274Z,9.76
2023-05-06T00:33:40.738Z,9.69
2023-05-06T00:36:12.229Z,9.68
2023-05-06T00:38:43.684Z,9.67
2023-05-06T00:41:15.646Z,9.60
2023-05-06T00:43:47.172Z,9.63
2023-05-06T00:46:18.992Z,9.51
2023-05-06T00:48:50.489Z,9.46
2023-05-06T00:51:22.375Z,9.34
2023-05-06T00:53:53.821Z,9.40
2023-05-06T00:56:25.461Z,9.45
2023-05-06T00:58:57.271Z,9.43
2023-05-06T01:01:29.202Z,9.39
2023-05-06T01:04:01.144Z,9.37
2023-05-06T01:06:32.676Z,9.34
2023-05-06T01:09:04.458Z,9.29
2023-05-06T01:11:35.939Z,9.31
2023-05-06T01:14:07.785Z,9.30
2023-05-06T01:16:39.328Z,9.31
2023-05-06T01:19:11.286Z,9.31
2023-05-06T01:21:42.735Z,9.33
2023-05-06T01:24:14.510Z,9.28
2023-05-06T01:26:45.941Z,9.34
2023-05-06T01:29:17.726Z,9.30
2023-05-06T01:31:49.512Z,9.30
2023-05-06T01:34:21.235Z,9.30
2023-05-06T01:36:53.007Z,9.32
2023-05-06T01:39:24.473Z,9.30
2023-05-06T01:41:56.298Z,9.25
2023-05-06T01:44:27.802Z,9.22
2023-05-06T01:46:59.611Z,9.23
2023-05-06T01:49:31.069Z,9.26
2023-05-06T01:52:02.989Z,9.19
2023-05-06T01:54:34.503Z,9.23
2023-05-06T01:57:06.457Z,9.20
2023-05-06T01:59:37.933Z,9.17
2023-05-06T02:02:09.841Z,9.22
2023-05-06T02:04:41.819Z,9.20
2023-05-06T02:07:13.274Z,9.17
2023-05-06T02:09:45.198Z,9.16
2023-05-06T02:12:16.674Z,9.17
2023-05-06T02:14:48.465Z,9.16
2023-05-06T02:17:19.950Z,9.15
2023-05-06T02:19:51.598Z,9.15
2023-05-06T02:22:23.071Z,9.08
2023-05-06T02:24:54.725Z,9.11
2023-05-06T02:27:26.465Z,9.17
2023-05-06T02:29:58.217Z,9.15
2023-05-06T02:32:29.857Z,9.14
2023-05-06T02:35:01.302Z,9.12
2023-05-06T02:37:33.124Z,9.14
2023-05-06T02:40:04.603Z,9.18
2023-05-06T02:42:36.109Z,9.13
2023-05-06T02:45:07.754Z,9.13
2023-05-06T02:47:39.465Z,9.13
2023-05-06T02:50:10.936Z,9.08
2023-05-06T02:52:42.677Z,8.95
2023-05-06T02:55:14.166Z,8.97
2023-05-06T02:57:45.881Z,8.86
2023-05-06T03:00:17.642Z,7.27
2023-05-06T03:02:49.449Z,8.76
2023-05-06T03:05:21.282Z,8.83
2023-05-06T03:07:52.732Z,8.74
2023-05-06T03:10:24.485Z,8.67
2023-05-06T03:12:56.036Z,8.61
2023-05-06T03:15:27.759Z,8.63
2023-05-06T03:17:59.242Z,8.63
2023-05-06T03:20:31.049Z,8.54
2023-05-06T03:23:02.506Z,8.55
2023-05-06T03:25:34.004Z,8.56
2023-05-06T03:28:05.467Z,8.60
2023-05-06T03:30:36.975Z,8.60
2023-05-06T03:33:08.938Z,8.58
2023-05-06T03:35:40.431Z,8.49
2023-05-06T03:38:11.881Z,5.33
2023-05-06T03:40:43.334Z,8.58
2023-05-06T03:43:15.158Z,8.56
2023-05-06T03:45:46.685Z,8.51
2023-05-06T03:48:18.617Z,8.50
2023-05-06T03:50:51.053Z,8.50
2023-05-06T03:53:23.018Z,8.47
2023-05-06T03:55:59.167Z,8.40
2023-05-06T03:58:30.985Z,8.32
2023-05-06T04:01:02.890Z,8.39
2023-05-06T04:03:34.423Z,8.38
2023-05-06T04:06:06.205Z,8.36
2023-05-06T04:08:37.712Z,8.30
2023-05-06T04:11:09.345Z,8.33
2023-05-06T04:13:40.813Z,8.30
2023-05-06T04:16:12.694Z,8.32
2023-05-06T04:18:44.195Z,8.27
2023-05-06T04:21:16.069Z,8.20
2023-05-06T04:23:47.537Z,8.15
2023-05-06T04:26:19.326Z,8.14
2023-05-06T04:28:50.880Z,8.13
2023-05-06T04:31:22.676Z,8.20
2023-05-06T04:33:54.329Z,8.22
2023-05-06T04:36:25.759Z,8.27
2023-05-06T04:38:57.531Z,8.25
2023-05-06T04:41:28.996Z,8.34
2023-05-06T04:44:00.843Z,8.20
2023-05-06T04:46:32.279Z,8.20
2023-05-06T04:49:04.051Z,8.24
2023-05-06T04:51:35.500Z,8.19
2023-05-06T04:54:07.340Z,8.33
2023-05-06T04:56:38.808Z,8.33
2023-05-06T04:59:10.472Z,8.31
2023-05-06T05:01:42.309Z,8.35
2023-05-06T05:04:13.813Z,8.42
2023-05-06T05:06:45.438Z,8.38
2023-05-06T05:09:16.900Z,8.36
2023-05-06T05:11:48.722Z,8.27
2023-05-06T05:14:20.168Z,8.27
2023-05-06T05:16:51.692Z,8.29
2023-05-06T05:19:23.174Z,8.34
2023-05-06T05:21:55.006Z,8.34
2023-05-06T05:24:26.801Z,8.30
2023-05-06T05:26:58.602Z,8.33
2023-05-06T05:29:30.212Z,8.27
2023-05-06T05:32:01.706Z,8.17
2023-05-06T05:34:33.539Z,8.22
2023-05-06T05:37:04.996Z,8.22
2023-05-06T05:39:36.486Z,8.24
2023-05-06T05:42:07.948Z,8.41
2023-05-06T05:44:39.464Z,8.41
2023-05-06T05:47:10.995Z,8.47
2023-05-06T05:49:42.710Z,8.43
2023-05-06T05:52:14.149Z,8.41
2023-05-06T05:54:45.905Z,8.45
2023-05-06T05:57:17.724Z,8.54
2023-05-06T05:59:49.470Z,8.50
2023-05-06T06:02:23.731Z,8.52
2023-05-06T06:04:55.353Z,8.52
2023-05-06T06:07:27.259Z,8.62
2023-05-06T06:09:58.736Z,8.74
2023-05-06T06:12:30.365Z,8.82
2023-05-06T06:15:01.822Z,8.67
2023-05-06T06:17:35.730Z,8.84
2023-05-06T06:20:07.255Z,8.83
2023-05-06T06:22:38.737Z,8.70
2023-05-06T06:25:10.919Z,8.82
2023-05-06T06:27:42.904Z,8.67
2023-05-06T06:30:14.894Z,8.64
2023-05-06T06:32:46.430Z,8.64
2023-05-06T06:35:18.392Z,8.61
2023-05-06T06:37:49.863Z,8.50
2023-05-06T06:40:21.571Z,8.39
2023-05-06T06:42:53.028Z,8.42
2023-05-06T06:45:24.647Z,8.43
2023-05-06T06:47:56.150Z,8.42
2023-05-06T06:50:27.951Z,8.45
2023-05-06T06:52:59.412Z,8.45
2023-05-06T06:55:31.181Z,8.64
2023-05-06T06:58:02.989Z,8.57
2023-05-06T07:00:34.495Z,8.62
2023-05-06T07:03:06.628Z,8.75
2023-05-06T07:05:38.175Z,8.88
2023-05-06T07:08:09.651Z,8.91
2023-05-06T07:10:41.105Z,8.98
2023-05-06T07:13:12.960Z,8.92
2023-05-06T07:15:44.525Z,9.05
2023-05-06T07:18:16.060Z,8.89
2023-05-06T07:20:47.615Z,8.75
2023-05-06T07:23:19.272Z,8.93
2023-05-06T07:25:50.960Z,8.98
2023-05-06T07:28:22.872Z,9.11
2023-05-06T07:30:54.582Z,9.21
2023-05-06T07:33:26.122Z,9.23
2023-05-06T07:35:58.043Z,8.98
2023-05-06T07:38:29.519Z,9.00
2023-05-06T07:41:02.129Z,9.01
2023-05-06T07:43:33.569Z,8.96
2023-05-06T07:46:05.556Z,9.15
2023-05-06T07:48:37.016Z,9.10
2023-05-06T07:51:08.621Z,9.15
2023-05-06T07:53:40.147Z,9.25
2023-05-06T07:56:12.106Z,9.35
2023-05-06T07:58:43.918Z,9.24
2023-05-06T08:01:15.352Z,9.10
2023-05-06T08:03:47.477Z,9.07
2023-05-06T08:06:19.002Z,9.17
2023-05-06T08:08:50.471Z,9.17
2023-05-06T08:11:21.939Z,9.11
2023-05-06T08:13:53.820Z,9.15
2023-05-06T08:16:25.775Z,9.24
2023-05-06T08:18:57.628Z,9.11
2023-05-06T08:21:29.126Z,9.02
2023-05-06T08:24:00.956Z,9.21
2023-05-06T08:26:32.907Z,9.09
2023-05-06T08:29:04.695Z,9.14
2023-05-06T08:31:36.271Z,9.19
2023-05-06T08:34:07.771Z,9.13
2023-05-06T08:36:39.247Z,9.28
2023-05-06T08:39:10.709Z,9.31
2023-05-06T08:41:42.515Z,8.26
2023-05-06T08:44:13.990Z,9.18
2023-05-06T08:46:45.679Z,9.14
2023-05-06T08:49:17.133Z,9.12
2023-05-06T08:51:48.854Z,9.20
2023-05-06T08:54:20.305Z,9.29
2023-05-06T08:56:52.088Z,9.22
2023-05-06T08:59:23.830Z,9.13
2023-05-06T09:01:55.694Z,9.16
2023-05-06T09:04:27.687Z,9.09
2023-05-06T09:06:59.146Z,9.24
2023-05-06T09:09:31.078Z,9.26
2023-05-06T09:12:02.507Z,9.37
2023-05-06T09:14:36.923Z,9.28
2023-05-06T09:17:08.419Z,9.45
2023-05-06T09:19:39.922Z,9.45
2023-05-06T09:22:11.396Z,9.54
2023-05-06T09:24:43.168Z,9.51
2023-05-06T09:27:15.291Z,9.52
2023-05-06T09:29:47.158Z,9.54
2023-05-06T09:32:18.963Z,9.58
2023-05-06T09:34:50.473Z,9.59
2023-05-06T09:37:22.068Z,9.53
2023-05-06T09:39:53.519Z,9.62
2023-05-06T09:42:25.350Z,9.64
2023-05-06T09:44:58.120Z,9.70
2023-05-06T09:47:30.856Z,9.79
2023-05-06T09:50:02.485Z,9.81
2023-05-06T09:52:33.947Z,10.02
2023-05-06T09:55:06.053Z,9.94
2023-05-06T09:57:37.545Z,10.05
2023-05-06T10:00:09.401Z,10.12
2023-05-06T10:02:41.095Z,10.33
2023-05-06T10:05:13.639Z,10.18
2023-05-06T10:07:45.529Z,10.10
2023-05-06T10:10:17.536Z,10.02
2023-05-06T10:12:49.013Z,10.13
2023-05-06T10:15:20.898Z,10.08
2023-05-06T10:17:52.382Z,9.96
2023-05-06T10:20:24.174Z,10.09
2023-05-06T10:22:55.965Z,10.21
2023-05-06T10:25:28.001Z,10.19
2023-05-06T10:27:59.651Z,10.28
2023-05-06T10:30:31.428Z,10.28
2023-05-06T10:33:03.308Z,10.41
2023-05-06T10:35:34.867Z,10.22
2023-05-06T10:38:06.371Z,10.13
2023-05-06T10:40:37.821Z,10.18
2023-05-06T10:43:09.794Z,10.32
2023-05-06T10:45:41.292Z,10.23
2023-05-06T10:48:13.011Z,10.23
2023-05-06T10:50:46.694Z,10.16
2023-05-06T10:53:18.637Z,10.34
2023-05-06T10:55:50.306Z,10.35
2023-05-06T10:58:21.738Z,10.35
2023-05-06T11:00:53.646Z,10.40
2023-05-06T11:03:25.329Z,10.36
2023-05-06T11:05:57.036Z,10.20
2023-05-06T11:08:28.478Z,10.18
2023-05-06T11:11:00.437Z,10.29
2023-05-06T11:13:32.016Z,10.19
2023-05-06T11:16:03.545Z,10.29
2023-05-06T11:18:35.006Z,10.32
2023-05-06T11:21:06.994Z,10.37
2023-05-06T11:23:38.441Z,10.24
2023-05-06T11:26:09.905Z,10.12
2023-05-06T11:28:41.408Z,10.04
2023-05-06T11:31:12.935Z,10.02
2023-05-06T11:33:44.867Z,9.97
2023-05-06T11:36:16.322Z,10.12
2023-05-06T11:38:47.881Z,10.09
2023-05-06T11:41:19.309Z,10.18
2023-05-06T11:43:50.932Z,10.21
2023-05-06T11:46:22.452Z,10.21
2023-05-06T11:48:54.055Z,10.25
2023-05-06T11:51:25.540Z,10.16
2023-05-06T11:53:57.378Z,10.02
2023-05-06T11:56:29.220Z,10.31
2023-05-06T11:59:00.756Z,10.38
2023-05-06T12:01:32.469Z,10.54
2023-05-06T12:04:04.092Z,10.42
2023-05-06T12:06:35.626Z,10.33
2023-05-06T12:09:07.071Z,9.97
2023-05-06T12:11:38.544Z,10.06
2023-05-06T12:14:10.054Z,9.90
2023-05-06T12:16:41.848Z,9.85
2023-05-06T12:19:13.330Z,9.78
2023-05-06T12:21:44.802Z,9.86
2023-05-06T12:24:16.657Z,9.86
2023-05-06T12:26:48.199Z,9.98
2023-05-06T12:29:19.663Z,10.07
2023-05-06T12:31:51.118Z,10.13
2023-05-06T12:34:22.625Z,10.20
2023-05-06T12:36:54.101Z,10.26
2023-05-06T12:39:25.969Z,10.07
2023-05-06T12:41:57.416Z,10.05
2023-05-06T12:44:29.220Z,10.05
2023-05-06T12:47:00.751Z,9.94
2023-05-06T12:49:32.488Z,10.09
2023-05-06T12:52:03.943Z,10.08
2023-05-06T12:54:35.408Z,10.12
2023-05-06T12:57:07.212Z,9.91
2023-05-06T12:59:38.702Z,9.88
2023-05-06T13:02:10.678Z,10.05
2023-05-06T13:04:42.164Z,10.06
2023-05-06T13:07:13.942Z,10.03
2023-05-06T13:09:45.427Z,10.19
2023-05-06T13:12:17.183Z,10.10
2023-05-06T13:14:48.637Z,10.17
2023-05-06T13:17:20.523Z,10.13
2023-05-06T13:19:52.057Z,10.28
2023-05-06T13:22:23.705Z,10.37
2023-05-06T13:24:55.352Z,10.30
2023-05-06T13:27:27.304Z,10.27
2023-05-06T13:29:59.123Z,10.21
2023-05-06T13:32:30.666Z,10.12
2023-05-06T13:35:02.198Z,10.14
2023-05-06T13:37:33.649Z,10.15
2023-05-06T13:40:05.605Z,10.13
2023-05-06T13:42:37.137Z,10.06
2023-05-06T13:45:08.769Z,10.21
2023-05-06T13:47:40.285Z,10.40
2023-05-06T13:50:12.088Z,10.47
2023-05-06T13:52:43.997Z,10.48
2023-05-06T13:55:16.463Z,10.67
2023-05-06T13:57:49.686Z,10.94
2023-05-06T14:00:21.142Z,11.10
2023-05-06T14:02:52.806Z,10.96
2023-05-06T14:05:24.356Z,10.76
2023-05-06T14:07:56.151Z,10.59
2023-05-06T14:10:27.615Z,10.37
2023-05-06T14:12:59.309Z,10.30
2023-05-06T14:15:30.800Z,10.18
2023-05-06T14:18:02.371Z,10.27
2023-05-06T14:20:33.916Z,10.31
2023-05-06T14:23:05.401Z,10.45
2023-05-06T14:25:36.873Z,10.39
2023-05-06T14:28:08.352Z,10.16
2023-05-06T14:30:39.867Z,10.16
2023-05-06T14:33:11.303Z,10.19
2023-05-06T14:35:42.834Z,10.22
2023-05-06T14:38:14.324Z,10.52
2023-05-06T14:40:46.048Z,10.80
2023-05-06T14:43:17.497Z,11.02
2023-05-06T14:45:49.008Z,10.65
2023-05-06T14:48:20.506Z,10.50
2023-05-06T14:50:52.329Z,10.60
2023-05-06T14:53:23.799Z,10.62
2023-05-06T14:55:55.466Z,10.39
2023-05-06T14:58:27.083Z,10.23
2023-05-06T15:00:58.706Z,10.21
2023-05-06T15:03:30.575Z,10.09
2023-05-06T15:06:02.085Z,9.97
2023-05-06T15:08:33.586Z,9.86
2023-05-06T15:11:05.028Z,9.98
2023-05-06T15:13:36.482Z,9.83
2023-05-06T15:16:09.917Z,9.79
2023-05-06T15:18:42.727Z,9.83
2023-05-06T15:21:14.201Z,9.66
2023-05-06T15:23:45.998Z,9.60
2023-05-06T15:26:17.787Z,9.65
2023-05-06T15:28:49.274Z,9.61
2023-05-06T15:31:21.131Z,9.76
2023-05-06T15:33:52.609Z,9.54
2023-05-06T15:36:24.453Z,9.53
2023-05-06T15:38:57.135Z,9.61
2023-05-06T15:41:30.817Z,9.60
2023-05-06T15:44:02.279Z,9.65
2023-05-06T15:46:33.821Z,9.71
2023-05-06T15:51:39.925Z,9.80
2023-05-06T15:54:11.442Z,9.71
2023-05-06T15:56:43.223Z,9.48
2023-05-06T15:59:15.092Z,9.58
2023-05-06T16:04:21.288Z,9.58
2023-05-06T16:06:52.875Z,9.50
2023-05-06T16:09:24.546Z,9.59
2023-05-06T16:11:56.009Z,9.62
2023-05-06T16:14:27.474Z,9.52
2023-05-06T16:16:58.938Z,9.51
2023-05-06T16:19:30.682Z,9.47
2023-05-06T16:22:02.139Z,9.66
2023-05-06T16:24:33.603Z,9.66
2023-05-06T16:27:05.065Z,9.58
2023-05-06T16:29:36.558Z,9.67
2023-05-06T16:32:08.037Z,9.75
2023-05-06T16:34:40.453Z,9.68
2023-05-06T16:37:12.879Z,9.47
2023-05-06T16:39:44.325Z,9.53
2023-05-06T16:42:16.120Z,9.51
2023-05-06T16:44:47.562Z,9.44
2023-05-06T16:47:19.557Z,9.44
2023-05-06T16:49:51.141Z,9.37
2023-05-06T16:52:22.624Z,9.36
2023-05-06T16:54:54.079Z,9.45
2023-05-06T16:57:25.852Z,9.33
2023-05-06T16:59:57.298Z,9.28
2023-05-06T17:02:29.197Z,9.32
2023-05-06T17:05:00.994Z,9.21
2023-05-06T17:07:32.461Z,9.27
2023-05-06T17:10:04.222Z,9.35
2023-05-06T17:12:35.726Z,9.24
2023-05-06T17:15:07.616Z,9.27
2023-05-06T17:17:39.127Z,9.18
2023-05-06T17:20:11.475Z,9.23
2023-05-06T17:22:43.277Z,9.29
2023-05-06T17:25:15.131Z,9.24
2023-05-06T17:27:46.574Z,9.29
2023-05-06T17:30:18.341Z,9.22
2023-05-06T17:32:49.824Z,9.24
2023-05-06T17:35:21.634Z,9.21
2023-05-06T17:37:53.578Z,9.09
2023-05-06T17:40:25.256Z,9.19
2023-05-06T17:42:57.020Z,9.16
2023-05-06T17:45:28.667Z,9.04
2023-05-06T17:48:00.731Z,9.06
2023-05-06T17:50:32.289Z,8.90
2023-05-06T17:53:04.110Z,8.99
2023-05-06T17:55:35.612Z,9.02
2023-05-06T17:58:07.111Z,8.99
2023-05-06T18:00:38.623Z,8.97
2023-05-06T18:03:10.540Z,8.96
2023-05-06T18:05:42.041Z,8.86
2023-05-06T18:08:13.833Z,8.86
2023-05-06T18:10:45.761Z,8.81
2023-05-06T18:13:17.707Z,8.88
2023-05-06T18:15:49.484Z,8.88
2023-05-06T18:18:20.963Z,8.81
2023-05-06T18:20:52.785Z,8.80
2023-05-06T18:23:24.252Z,8.77
2023-05-06T18:25:56.004Z,8.70
2023-05-06T18:28:27.457Z,8.74
2023-05-06T18:30:59.204Z,8.86
2023-05-06T18:33:30.643Z,8.86
2023-05-06T18:36:02.301Z,8.91
2023-05-06T18:38:33.759Z,8.96
2023-05-06T18:41:05.544Z,8.88
2023-05-06T18:43:37.070Z,8.87
2023-05-06T18:46:08.766Z,8.89
2023-05-06T18:48:40.290Z,8.76
2023-05-06T18:51:11.738Z,8.86
2023-05-06T18:53:43.877Z,8.81
2023-05-06T18:56:15.368Z,8.84
2023-05-06T18:58:47.313Z,8.77
2023-05-06T19:01:18.866Z,8.69
2023-05-06T19:03:50.626Z,8.71
2023-05-06T19:06:22.133Z,8.79
2023-05-06T19:08:53.712Z,8.77
2023-05-06T19:11:25.155Z,8.80
2023-05-06T19:13:56.940Z,8.79
2023-05-06T19:16:28.748Z,8.75
2023-05-06T19:19:00.567Z,8.70
2023-05-06T19:21:32.221Z,8.70
2023-05-06T19:24:03.669Z,8.80
2023-05-06T19:26:35.456Z,8.65
2023-05-06T19:29:06.922Z,8.67
2023-05-06T19:31:38.518Z,8.69
2023-05-06T19:34:10.087Z,8.70
2023-05-06T19:36:41.722Z,8.64
2023-05-06T19:39:13.178Z,8.68
2023-05-06T19:41:45.017Z,8.66
2023-05-06T19:44:16.562Z,8.69
2023-05-06T19:46:48.168Z,8.62
2023-05-06T19:49:19.744Z,8.73
2023-05-06T19:51:51.628Z,8.69
2023-05-06T19:54:23.598Z,8.71
2023-05-06T19:56:55.194Z,8.64
2023-05-06T19:59:27.824Z,8.62
2023-05-06T20:01:59.377Z,8.62
2023-05-06T20:04:31.233Z,7.83
2023-05-06T20:07:02.739Z,8.61
2023-05-06T20:09:34.452Z,8.61
2023-05-06T20:12:05.941Z,8.64
2023-05-06T20:14:37.517Z,8.63
2023-05-06T20:17:09.050Z,8.70
2023-05-06T20:19:40.567Z,8.69
2023-05-06T20:22:12.060Z,8.59
2023-05-06T20:24:43.864Z,8.56
2023-05-06T20:27:15.520Z,8.54
2023-05-06T20:29:47.066Z,8.52
2023-05-06T20:32:18.776Z,8.47
2023-05-06T20:34:50.273Z,8.43
2023-05-06T20:37:22.196Z,8.54
2023-05-06T20:39:53.714Z,8.53
2023-05-06T20:42:25.515Z,8.46
2023-05-06T20:44:56.945Z,8.54
2023-05-06T20:47:28.980Z,8.58
2023-05-06T20:50:00.534Z,8.49
2023-05-06T20:52:32.335Z,8.46
2023-05-06T20:55:04.193Z,8.48
2023-05-06T20:57:36.165Z,8.51
2023-05-06T21:00:07.952Z,8.45
2023-05-06T21:02:41.318Z,8.46
2023-05-06T21:05:14.030Z,8.55
2023-05-06T21:07:45.684Z,8.44
2023-05-06T21:10:17.468Z,8.48
2023-05-06T21:12:49.072Z,8.44
2023-05-06T21:15:20.959Z,8.50
2023-05-06T21:17:52.558Z,8.42
2023-05-06T21:20:24.238Z,8.52
2023-05-06T21:22:55.674Z,8.53
2023-05-06T21:25:27.324Z,8.51
2023-05-06T21:27:58.844Z,7.70
2023-05-06T21:30:30.659Z,8.48
2023-05-06T21:33:02.703Z,8.47
2023-05-06T21:35:34.206Z,8.55
2023-05-06T21:38:06.030Z,8.56
2023-05-06T21:40:37.489Z,8.59
2023-05-06T21:43:09.298Z,8.61
2023-05-06T21:45:40.773Z,8.54
2023-05-06T21:48:12.257Z,8.54
2023-05-06T21:50:43.759Z,8.46
2023-05-06T21:53:15.588Z,8.45
2023-05-06T21:55:47.094Z,8.50
2023-05-06T21:58:18.912Z,8.54
2023-05-06T22:00:50.420Z,8.42
2023-05-06T22:03:22.299Z,8.51
2023-05-06T22:05:53.887Z,8.54
2023-05-06T22:08:25.683Z,8.52
2023-05-06T22:10:57.423Z,8.48
2023-05-06T22:13:29.315Z,8.55
2023-05-06T22:16:01.228Z,8.48
2023-05-06T22:18:32.698Z,8.50
2023-05-06T22:21:04.296Z,8.54
2023-05-06T22:23:35.764Z,8.53
2023-05-06T22:26:07.660Z,8.53
2023-05-06T22:28:39.169Z,8.53
2023-05-06T22:31:10.701Z,8.53
2023-05-06T22:33:42.177Z,8.58
2023-05-06T22:36:14.047Z,8.58
2023-05-06T22:38:45.550Z,8.60
2023-05-06T22:41:17.236Z,8.63
2023-05-06T22:43:49.036Z,8.65
2023-05-06T22:46:20.941Z,8.68
2023-05-06T22:48:52.510Z,8.59
2023-05-06T22:51:23.981Z,8.53
2023-05-06T22:53:55.516Z,8.47
2023-05-06T22:56:27.008Z,8.51
2023-05-06T22:58:58.761Z,8.55
2023-05-06T23:01:30.222Z,8.55
2023-05-06T23:04:02.052Z,8.53
2023-05-06T23:06:33.514Z,8.60
2023-05-06T23:09:05.252Z,8.65
2023-05-06T23:11:36.807Z,8.61
2023-05-06T23:14:08.584Z,8.66
2023-05-06T23:16:40.110Z,8.64
2023-05-06T23:19:11.780Z,8.64
2023-05-06T23:21:43.611Z,8.65
2023-05-06T23:24:15.484Z,8.66
2023-05-06T23:26:46.942Z,8.71
2023-05-06T23:29:18.407Z,8.69
2023-05-06T23:31:50.299Z,8.67
2023-05-06T23:34:21.731Z,8.61
2023-05-06T23:36:53.220Z,8.65
2023-05-06T23:39:24.696Z,8.66
2023-05-06T23:41:56.435Z,8.67
2023-05-06T23:44:27.910Z,8.71
2023-05-06T23:46:59.670Z,8.64
2023-05-06T23:49:31.116Z,8.69
2023-05-06T23:52:02.805Z,8.68
2023-05-06T23:54:34.258Z,8.69
2023-05-06T23:57:06.021Z,8.75
2023-05-06T23:59:37.459Z,8.80
